createdAt,value
2023-05-14T00:00:04.228Z,3.40
2023-05-14T00:02:33.544Z,3.40
2023-05-14T00:05:00.793Z,3.75
2023-05-14T00:07:30.973Z,3.30
2023-05-14T00:09:58.995Z,3.70
2023-05-14T00:12:26.773Z,3.40
2023-05-14T00:14:54.263Z,3.38
2023-05-14T00:17:21.465Z,3.45
2023-05-14T00:19:48.893Z,3.25
2023-05-14T00:22:15.990Z,3.05
2023-05-14T00:24:44.593Z,3.50
2023-05-14T00:27:11.833Z,2.83
2023-05-14T00:29:40.536Z,2.97
2023-05-14T00:32:11.026Z,3.17
2023-05-14T00:34:38.139Z,3.60
2023-05-14T00:37:08.343Z,3.83
2023-05-14T00:40:00.458Z,3.88
2023-05-14T00:42:27.918Z,4.10
2023-05-14T00:44:56.577Z,3.80
2023-05-14T00:47:27.574Z,3.83
2023-05-14T00:50:02.157Z,3.92
2023-05-14T00:52:29.325Z,4.25
2023-05-14T00:55:16.754Z,4.82
2023-05-14T00:57:50.829Z,3.70
2023-05-14T01:00:21.848Z,3.63
2023-05-14T01:02:49.307Z,4.07
2023-05-14T01:05:16.558Z,3.88
2023-05-14T01:08:14.065Z,4.20
2023-05-14T01:11:03.539Z,4.20
2023-05-14T01:13:49.420Z,4.68
2023-05-14T01:16:19.292Z,4.22
2023-05-14T01:18:51.149Z,4.18
2023-05-14T01:21:38.895Z,3.88
2023-05-14T01:24:06.601Z,4.60
2023-05-14T01:26:34.315Z,3.83
2023-05-14T01:29:11.305Z,4.22
2023-05-14T01:31:40.983Z,4.28
2023-05-14T01:34:12.899Z,4.40
2023-05-14T01:36:43.147Z,4.03
2023-05-14T01:39:15.409Z,3.20
2023-05-14T01:42:07.913Z,4.10
2023-05-14T01:44:35.643Z,3.58
2023-05-14T01:47:03.622Z,3.58
2023-05-14T01:49:30.815Z,4.28
2023-05-14T01:52:00.271Z,4.40
2023-05-14T01:54:27.433Z,4.90
2023-05-14T01:56:54.592Z,5.38
2023-05-14T01:59:21.761Z,4.85
2023-05-14T02:01:49.107Z,5.03
2023-05-14T02:04:16.555Z,4.43
2023-05-14T02:06:43.824Z,5.22
2023-05-14T02:09:11.376Z,4.40
2023-05-14T02:11:41.565Z,3.90
2023-05-14T02:14:08.724Z,3.78
2023-05-14T02:16:35.878Z,3.92
2023-05-14T02:19:03.093Z,4.03
2023-05-14T02:21:30.937Z,3.88
2023-05-14T02:23:58.115Z,3.58
2023-05-14T02:26:25.825Z,3.60
2023-05-14T02:28:53.067Z,4.00
2023-05-14T02:31:20.175Z,4.18
2023-05-14T02:33:47.391Z,3.25
2023-05-14T02:36:14.571Z,3.53
2023-05-14T02:38:47.728Z,3.45
2023-05-14T02:41:18.629Z,3.47
2023-05-14T02:43:48.792Z,3.60
2023-05-14T02:46:41.339Z,3.60
2023-05-14T02:49:08.766Z,3.22
2023-05-14T02:51:39.965Z,3.55
2023-05-14T02:57:13.725Z,3.05
2023-05-14T02:59:40.910Z,3.22
2023-05-14T03:02:08.605Z,3.10
2023-05-14T03:04:36.463Z,3.50
2023-05-14T03:07:14.770Z,3.15
2023-05-14T03:09:45.301Z,3.22
2023-05-14T03:17:32.884Z,3.33
2023-05-14T03:20:07.206Z,2.90
2023-05-14T03:22:46.761Z,3.53
2023-05-14T03:25:20.738Z,3.25
2023-05-14T03:28:13.511Z,2.63
2023-05-14T03:30:40.695Z,2.83
2023-05-14T03:33:07.928Z,3.50
2023-05-14T03:35:41.093Z,3.17
2023-05-14T03:38:16.540Z,3.42
2023-05-14T03:40:59.028Z,3.28
2023-05-14T03:43:27.696Z,3.50
2023-05-14T03:46:20.658Z,4.13
2023-05-14T03:48:48.204Z,3.72
2023-05-14T03:51:15.572Z,4.55
2023-05-14T03:53:45.952Z,3.78
2023-05-14T03:56:16.133Z,4.03
2023-05-14T03:58:43.378Z,4.05
2023-05-14T04:01:10.613Z,3.78
2023-05-14T04:03:37.945Z,4.05
2023-05-14T04:06:05.407Z,4.28
2023-05-14T04:08:32.571Z,3.88
2023-05-14T04:11:00.443Z,5.00
2023-05-14T04:13:27.540Z,4.95
2023-05-14T04:15:54.870Z,4.82
2023-05-14T04:18:22.001Z,5.90
2023-05-14T04:20:49.513Z,5.55
2023-05-14T04:23:16.625Z,4.82
2023-05-14T04:25:43.729Z,5.15
2023-05-14T04:28:10.964Z,5.35
2023-05-14T04:30:38.112Z,4.85
2023-05-14T04:33:09.596Z,4.30
2023-05-14T04:35:36.840Z,4.57
2023-05-14T04:38:04.080Z,4.53
2023-05-14T04:40:31.919Z,3.88
2023-05-14T04:42:59.076Z,4.10
2023-05-14T04:45:34.052Z,4.55
2023-05-14T04:48:08.713Z,3.72
2023-05-14T04:50:44.418Z,3.97
2023-05-14T04:53:36.253Z,3.67
2023-05-14T04:56:03.395Z,3.60
2023-05-14T04:58:34.581Z,4.13
2023-05-14T05:01:08.523Z,3.40
2023-05-14T05:03:38.784Z,3.70
2023-05-14T05:06:16.369Z,3.47
2023-05-14T05:08:44.869Z,3.95
2023-05-14T05:11:11.982Z,3.75
2023-05-14T05:13:39.064Z,4.40
2023-05-14T05:16:06.525Z,3.88
2023-05-14T05:18:33.868Z,3.65
2023-05-14T05:21:01.325Z,3.90
2023-05-14T05:23:28.400Z,3.45
2023-05-14T05:25:55.606Z,3.60
2023-05-14T05:28:22.852Z,3.85
2023-05-14T05:30:49.947Z,3.22
2023-05-14T05:33:17.216Z,3.28
2023-05-14T05:35:44.859Z,3.10
2023-05-14T05:38:12.186Z,3.70
2023-05-14T05:40:39.330Z,3.35
2023-05-14T05:43:06.491Z,3.33
2023-05-14T05:45:33.603Z,3.53
2023-05-14T05:48:00.991Z,3.25
2023-05-14T05:50:28.158Z,3.53
2023-05-14T05:52:55.415Z,3.90
2023-05-14T05:55:22.629Z,4.10
2023-05-14T05:57:49.818Z,3.75
2023-05-14T06:00:17.522Z,4.07
2023-05-14T06:02:44.777Z,3.90
2023-05-14T06:05:12.851Z,4.47
2023-05-14T06:07:40.101Z,4.60
2023-05-14T06:10:07.831Z,4.53
2023-05-14T06:12:34.927Z,4.68
2023-05-14T06:15:02.134Z,4.22
2023-05-14T06:17:29.400Z,4.03
2023-05-14T06:19:56.492Z,4.40
2023-05-14T06:22:23.627Z,4.65
2023-05-14T06:24:50.806Z,4.32
2023-05-14T06:27:17.971Z,4.68
2023-05-14T06:29:45.129Z,4.40
2023-05-14T06:32:15.569Z,4.53
2023-05-14T06:34:43.570Z,4.07
2023-05-14T06:37:11.271Z,3.92
2023-05-14T06:39:38.981Z,4.40
2023-05-14T06:42:06.756Z,4.70
2023-05-14T06:44:33.904Z,3.90
2023-05-14T06:47:01.176Z,4.35
2023-05-14T06:49:44.705Z,4.05
2023-05-14T06:52:11.886Z,4.80
2023-05-14T06:54:39.514Z,4.28
2023-05-14T06:57:06.933Z,3.78
2023-05-14T06:59:34.121Z,3.90
2023-05-14T07:02:01.620Z,4.32
2023-05-14T07:04:29.295Z,4.20
2023-05-14T07:06:56.421Z,4.35
2023-05-14T07:09:27.862Z,3.65
2023-05-14T07:11:55.124Z,3.78
2023-05-14T07:14:22.419Z,5.25
2023-05-14T07:16:49.780Z,4.45
2023-05-14T07:19:17.082Z,3.75
2023-05-14T07:21:44.411Z,4.10
2023-05-14T07:24:11.534Z,3.80
2023-05-14T07:26:39.368Z,4.35
2023-05-14T07:29:07.035Z,3.95
2023-05-14T07:31:34.359Z,4.05
2023-05-14T07:34:01.508Z,4.47
2023-05-14T07:36:28.647Z,4.10
2023-05-14T07:38:55.860Z,3.92
2023-05-14T07:41:23.018Z,4.72
2023-05-14T07:43:50.181Z,4.72
2023-05-14T07:46:17.354Z,4.25
2023-05-14T07:48:44.643Z,4.32
2023-05-14T07:51:12.045Z,4.53
2023-05-14T07:53:39.214Z,4.63
2023-05-14T07:56:06.788Z,5.32
2023-05-14T07:58:35.205Z,4.95
2023-05-14T08:01:04.278Z,4.78
2023-05-14T08:03:31.746Z,4.65
2023-05-14T08:05:58.988Z,4.25
2023-05-14T08:08:27.421Z,4.75
2023-05-14T08:10:54.635Z,4.28
2023-05-14T08:13:22.157Z,5.55
2023-05-14T08:15:49.377Z,4.68
2023-05-14T08:18:16.569Z,5.00
2023-05-14T08:20:43.731Z,5.13
2023-05-14T08:23:10.863Z,5.03
2023-05-14T08:25:37.922Z,4.63
2023-05-14T08:28:05.283Z,4.85
2023-05-14T08:30:32.434Z,4.93
2023-05-14T08:32:59.980Z,5.13
2023-05-14T08:35:27.145Z,4.47
2023-05-14T08:37:54.457Z,5.38
2023-05-14T08:40:22.289Z,5.53
2023-05-14T08:42:51.636Z,5.38
2023-05-14T08:45:21.074Z,5.47
2023-05-14T08:47:52.043Z,4.95
2023-05-14T08:50:23.626Z,5.82
2023-05-14T08:52:52.134Z,5.32
2023-05-14T08:55:20.000Z,5.32
2023-05-14T08:57:47.160Z,4.70
2023-05-14T09:00:15.792Z,4.90
2023-05-14T09:02:45.134Z,4.72
2023-05-14T09:05:12.611Z,5.18
2023-05-14T09:07:39.984Z,6.07
2023-05-14T09:10:09.163Z,4.70
2023-05-14T09:12:36.492Z,5.45
2023-05-14T09:15:03.984Z,5.07
2023-05-14T09:17:31.235Z,5.10
2023-05-14T09:19:58.966Z,5.45
2023-05-14T09:22:30.274Z,5.60
2023-05-14T09:25:05.834Z,6.18
2023-05-14T09:27:40.753Z,4.97
2023-05-14T09:30:34.239Z,5.90
2023-05-14T09:33:01.732Z,5.43
2023-05-14T09:35:28.979Z,5.65
2023-05-14T09:37:59.261Z,6.15
2023-05-14T09:40:26.841Z,6.53
2023-05-14T09:42:54.842Z,6.25
2023-05-14T09:45:26.345Z,6.05
2023-05-14T09:47:53.695Z,6.57
2023-05-14T09:50:21.193Z,5.68
2023-05-14T09:52:48.401Z,5.55
2023-05-14T09:55:16.146Z,6.18
2023-05-14T09:57:43.330Z,6.03
2023-05-14T10:00:12.829Z,5.70
2023-05-14T10:02:41.951Z,5.85
2023-05-14T10:05:09.808Z,5.45
2023-05-14T10:07:42.457Z,6.47
2023-05-14T10:10:13.826Z,5.75
2023-05-14T10:12:41.458Z,5.43
2023-05-14T10:15:21.340Z,5.53
2023-05-14T10:17:52.741Z,6.15
2023-05-14T10:20:21.024Z,6.33
2023-05-14T10:22:48.361Z,5.28
2023-05-14T10:25:19.608Z,5.68
2023-05-14T10:27:46.992Z,6.78
2023-05-14T10:30:14.295Z,7.13
2023-05-14T10:32:44.368Z,6.28
2023-05-14T10:35:20.913Z,7.45
2023-05-14T10:37:51.619Z,6.80
2023-05-14T10:40:19.603Z,5.85
2023-05-14T10:42:47.054Z,6.05
2023-05-14T10:45:20.399Z,6.20
2023-05-14T10:47:54.404Z,5.55
2023-05-14T10:50:26.734Z,6.00
2023-05-14T10:55:27.726Z,5.32
2023-05-14T10:57:54.946Z,5.90
2023-05-14T11:00:27.853Z,5.80
2023-05-14T11:02:57.747Z,5.90
2023-05-14T11:05:27.629Z,6.88
2023-05-14T11:07:58.820Z,7.35
2023-05-14T11:10:31.308Z,7.80
2023-05-14T11:12:59.190Z,7.22
2023-05-14T11:15:28.523Z,6.70
2023-05-14T11:17:56.103Z,6.80
2023-05-14T11:20:23.646Z,6.53
2023-05-14T11:22:53.713Z,7.35
2023-05-14T11:25:21.831Z,6.40
2023-05-14T11:27:50.734Z,6.55
2023-05-14T11:30:21.973Z,7.13
2023-05-14T11:32:50.615Z,7.13
2023-05-14T11:35:18.039Z,8.23
2023-05-14T11:37:51.938Z,8.13
2023-05-14T11:40:19.221Z,7.88
2023-05-14T11:42:46.416Z,8.30
2023-05-14T11:45:24.442Z,8.73
2023-05-14T11:47:53.086Z,7.78
2023-05-14T11:50:22.260Z,8.60
2023-05-14T11:52:50.937Z,8.35
2023-05-14T11:55:18.252Z,7.40
2023-05-14T11:57:45.472Z,7.80
2023-05-14T12:00:21.799Z,8.23
2023-05-14T12:02:50.272Z,7.90
2023-05-14T12:05:17.617Z,7.97
2023-05-14T12:07:46.177Z,7.78
2023-05-14T12:10:13.903Z,8.57
2023-05-14T12:12:41.345Z,7.78
2023-05-14T12:15:13.597Z,8.55
2023-05-14T12:20:12.546Z,7.82
2023-05-14T12:22:41.650Z,8.07
2023-05-14T12:25:15.743Z,7.97
2023-05-14T12:27:45.397Z,8.88
2023-05-14T12:32:44.451Z,9.68
2023-05-14T12:35:11.703Z,8.82
2023-05-14T12:37:40.076Z,9.63
2023-05-14T12:40:10.866Z,9.70
2023-05-14T12:42:38.098Z,9.25
2023-05-14T12:45:08.095Z,8.32
2023-05-14T12:47:36.323Z,9.43
2023-05-14T12:50:04.698Z,8.73
2023-05-14T12:55:02.112Z,9.07
2023-05-14T12:57:30.428Z,9.73
2023-05-14T12:59:57.865Z,8.82
2023-05-14T13:02:24.969Z,9.82
2023-05-14T13:04:52.056Z,8.93
2023-05-14T13:07:19.223Z,9.05
2023-05-14T13:09:46.306Z,9.95
2023-05-14T13:12:13.422Z,9.38
2023-05-14T13:14:40.539Z,8.48
2023-05-14T13:17:08.456Z,9.20
2023-05-14T13:19:35.877Z,9.10
2023-05-14T13:22:03.085Z,8.10
2023-05-14T13:24:30.185Z,8.60
2023-05-14T13:26:57.368Z,8.88
2023-05-14T13:29:24.870Z,8.90
2023-05-14T13:31:53.077Z,10.27
2023-05-14T13:34:20.200Z,8.13
2023-05-14T13:36:49.350Z,8.60
2023-05-14T13:39:16.879Z,9.35
2023-05-14T13:41:44.033Z,8.90
2023-05-14T13:44:11.106Z,9.20
2023-05-14T13:46:38.566Z,10.05
2023-05-14T13:49:06.591Z,8.95
2023-05-14T13:51:33.769Z,9.95
2023-05-14T13:54:01.099Z,8.45
2023-05-14T13:56:28.236Z,9.50
2023-05-14T13:58:55.908Z,8.50
2023-05-14T14:01:23.486Z,8.30
2023-05-14T14:03:50.676Z,8.70
2023-05-14T14:06:17.856Z,8.70
2023-05-14T14:08:45.083Z,10.07
2023-05-14T14:11:13.681Z,9.95
2023-05-14T14:13:46.370Z,9.43
2023-05-14T14:16:14.027Z,10.15
2023-05-14T14:18:43.381Z,10.07
2023-05-14T14:21:11.120Z,10.55
2023-05-14T14:23:39.462Z,10.50
2023-05-14T14:26:06.707Z,9.75
2023-05-14T14:28:33.954Z,10.00
2023-05-14T14:31:01.431Z,9.98
2023-05-14T14:33:28.690Z,10.32
2023-05-14T14:35:56.025Z,10.75
2023-05-14T14:38:23.226Z,9.98
2023-05-14T14:40:53.437Z,9.95
2023-05-14T14:43:20.589Z,10.00
2023-05-14T14:45:48.982Z,9.25
2023-05-14T14:48:37.527Z,9.38
2023-05-14T14:51:06.207Z,9.18
2023-05-14T14:53:34.010Z,8.15
2023-05-14T14:56:01.627Z,9.43
2023-05-14T14:58:29.589Z,9.60
2023-05-14T15:00:58.037Z,9.20
2023-05-14T15:03:25.674Z,9.20
2023-05-14T15:05:53.907Z,9.18
2023-05-14T15:08:27.539Z,8.70
2023-05-14T15:10:59.444Z,9.65
2023-05-14T15:13:27.235Z,9.27
2023-05-14T15:15:54.477Z,8.88
2023-05-14T15:18:21.761Z,9.73
2023-05-14T15:20:49.392Z,10.25
2023-05-14T15:23:16.632Z,10.13
2023-05-14T15:25:43.989Z,9.57
2023-05-14T15:28:11.357Z,10.40
2023-05-14T15:30:38.558Z,9.43
2023-05-14T15:33:08.728Z,10.45
2023-05-14T15:35:36.573Z,10.23
2023-05-14T15:38:04.289Z,10.20
2023-05-14T15:40:31.484Z,10.25
2023-05-14T15:42:58.608Z,9.35
2023-05-14T15:45:33.048Z,10.00
2023-05-14T15:48:00.327Z,9.70
2023-05-14T15:50:27.512Z,10.48
2023-05-14T15:52:54.680Z,10.45
2023-05-14T15:55:21.859Z,10.40
2023-05-14T15:57:49.055Z,10.18
2023-05-14T16:00:16.566Z,10.35
2023-05-14T16:02:43.794Z,9.88
2023-05-14T16:05:10.996Z,10.25
2023-05-14T16:07:38.807Z,9.63
2023-05-14T16:10:06.784Z,8.98
2023-05-14T16:12:33.978Z,9.27
2023-05-14T16:15:01.414Z,9.50
2023-05-14T16:17:30.009Z,8.95
2023-05-14T16:19:57.472Z,8.60
2023-05-14T16:22:24.545Z,8.20
2023-05-14T16:24:51.800Z,8.10
2023-05-14T16:27:19.239Z,8.00
2023-05-14T16:29:46.463Z,8.88
2023-05-14T16:32:16.540Z,9.18
2023-05-14T16:34:49.741Z,7.05
2023-05-14T16:37:19.279Z,8.10
2023-05-14T16:39:46.629Z,7.60
2023-05-14T16:42:14.058Z,8.27
2023-05-14T16:44:44.121Z,7.82
2023-05-14T16:47:11.291Z,7.78
2023-05-14T16:49:38.358Z,8.82
2023-05-14T16:52:06.799Z,9.07
2023-05-14T16:54:33.958Z,7.72
2023-05-14T16:57:01.157Z,7.05
2023-05-14T16:59:28.227Z,8.27
2023-05-14T17:01:55.669Z,7.88
2023-05-14T17:04:34.627Z,8.40
2023-05-14T17:07:02.025Z,9.60
2023-05-14T17:09:32.044Z,9.30
2023-05-14T17:11:59.230Z,11.07
2023-05-14T17:14:26.678Z,9.93
2023-05-14T17:16:54.687Z,9.60
2023-05-14T17:19:21.838Z,9.35
2023-05-14T17:21:49.051Z,10.50
2023-05-14T17:24:16.380Z,10.45
2023-05-14T17:26:44.072Z,8.90
2023-05-14T17:29:11.571Z,10.23
2023-05-14T17:31:40.662Z,9.32
2023-05-14T17:34:22.002Z,11.02
2023-05-14T17:36:50.724Z,10.35
2023-05-14T17:39:17.997Z,11.20
2023-05-14T17:41:48.986Z,9.77
2023-05-14T17:44:16.647Z,8.63
2023-05-14T17:46:44.952Z,9.60
2023-05-14T17:49:12.298Z,9.35
2023-05-14T17:51:39.439Z,9.27
2023-05-14T17:54:06.640Z,9.98
2023-05-14T17:56:34.107Z,10.43
2023-05-14T17:59:01.654Z,9.63
2023-05-14T18:01:30.121Z,10.52
2023-05-14T18:03:57.729Z,10.77
2023-05-14T18:06:25.120Z,9.57
2023-05-14T18:08:52.513Z,9.23
2023-05-14T18:11:20.938Z,8.65
2023-05-14T18:13:51.391Z,10.40
2023-05-14T18:16:21.566Z,10.07
2023-05-14T18:18:51.649Z,10.75
2023-05-14T18:21:18.868Z,9.63
2023-05-14T18:23:46.095Z,11.05
2023-05-14T18:26:15.073Z,10.95
2023-05-14T18:28:42.325Z,10.75
2023-05-14T18:31:10.980Z,10.43
2023-05-14T18:33:38.094Z,9.75
2023-05-14T18:36:05.480Z,9.77
2023-05-14T18:38:33.291Z,9.65
2023-05-14T18:41:00.767Z,10.07
2023-05-14T18:43:28.379Z,9.55
2023-05-14T18:45:55.703Z,9.45
2023-05-14T18:48:23.354Z,10.30
2023-05-14T18:50:51.164Z,10.30
2023-05-14T18:53:18.257Z,9.63
2023-05-14T18:55:48.421Z,10.50
2023-05-14T18:58:16.772Z,9.85
2023-05-14T19:00:43.938Z,10.57
2023-05-14T19:03:11.155Z,10.88
2023-05-14T19:05:40.192Z,11.00
2023-05-14T19:08:07.944Z,11.95
2023-05-14T19:10:35.071Z,10.65
2023-05-14T19:13:02.261Z,9.70
2023-05-14T19:15:29.779Z,10.05
2023-05-14T19:17:57.360Z,10.70
2023-05-14T19:20:24.786Z,10.25
2023-05-14T19:22:52.089Z,11.18
2023-05-14T19:25:19.472Z,12.73
2023-05-14T19:27:50.984Z,10.50
2023-05-14T19:30:19.529Z,9.70
2023-05-14T19:32:46.729Z,9.00
2023-05-14T19:35:15.159Z,8.55
2023-05-14T19:37:42.514Z,7.72
2023-05-14T19:40:11.359Z,9.20
2023-05-14T19:42:38.540Z,8.82
2023-05-14T19:45:06.238Z,9.07
2023-05-14T19:47:33.459Z,8.45
2023-05-14T19:50:00.731Z,9.00
2023-05-14T19:52:27.848Z,9.98
2023-05-14T19:54:55.028Z,10.15
2023-05-14T19:57:22.224Z,10.45
2023-05-14T19:59:49.325Z,10.30
2023-05-14T20:02:18.601Z,9.77
2023-05-14T20:04:46.302Z,10.73
2023-05-14T20:07:15.718Z,10.68
2023-05-14T20:09:43.091Z,10.98
2023-05-14T20:12:10.304Z,11.02
2023-05-14T20:14:37.456Z,10.25
2023-05-14T20:17:05.127Z,10.98
2023-05-14T20:19:32.364Z,11.20
2023-05-14T20:21:59.437Z,10.35
2023-05-14T20:24:26.542Z,11.70
2023-05-14T20:26:53.658Z,10.70
2023-05-14T20:29:20.896Z,11.10
2023-05-14T20:31:47.946Z,11.40
2023-05-14T20:34:14.999Z,11.95
2023-05-14T20:36:42.424Z,11.07
2023-05-14T20:39:10.971Z,11.75
2023-05-14T20:41:38.375Z,12.38
2023-05-14T20:44:05.595Z,11.75
2023-05-14T20:46:32.878Z,11.48
2023-05-14T20:49:02.225Z,11.27
2023-05-14T20:51:29.479Z,10.57
2023-05-14T20:53:56.599Z,12.35
2023-05-14T20:56:23.814Z,12.63
2023-05-14T20:58:51.020Z,12.05
2023-05-14T21:01:18.854Z,11.88
2023-05-14T21:03:46.224Z,12.57
2023-05-14T21:06:13.637Z,13.32
2023-05-14T21:08:40.929Z,13.18
2023-05-14T21:11:08.122Z,12.65
2023-05-14T21:13:35.259Z,12.43
2023-05-14T21:16:02.467Z,10.68
2023-05-14T21:18:32.958Z,10.68
2023-05-14T21:21:00.146Z,10.82
2023-05-14T21:23:27.212Z,10.73
2023-05-14T21:25:55.039Z,9.50
2023-05-14T21:28:22.673Z,11.00
2023-05-14T21:30:51.194Z,9.93
2023-05-14T21:33:19.080Z,10.77
2023-05-14T21:35:46.257Z,10.52
2023-05-14T21:38:13.528Z,10.70
2023-05-14T21:40:40.732Z,10.23
2023-05-14T21:43:07.906Z,9.85
2023-05-14T21:45:35.476Z,10.95
2023-05-14T21:48:02.805Z,9.95
2023-05-14T21:50:29.935Z,10.50
2023-05-14T21:52:57.103Z,8.98
2023-05-14T21:55:24.843Z,9.35
2023-05-14T21:57:52.332Z,9.35
2023-05-14T22:00:23.499Z,9.00
2023-05-14T22:02:52.370Z,8.88
2023-05-14T22:05:20.078Z,8.80
2023-05-14T22:07:47.408Z,7.97
2023-05-14T22:10:15.758Z,8.52
2023-05-14T22:12:43.941Z,7.13
2023-05-14T22:15:12.065Z,8.32
2023-05-14T22:17:39.578Z,8.57
2023-05-14T22:20:07.634Z,7.95
2023-05-14T22:22:34.867Z,8.43
2023-05-14T22:25:02.455Z,8.57
2023-05-14T22:27:32.626Z,7.50
2023-05-14T22:29:59.909Z,8.07
2023-05-14T22:32:27.352Z,7.57
2023-05-14T22:34:54.544Z,8.23
2023-05-14T22:37:21.702Z,8.75
2023-05-14T22:39:48.848Z,8.32
2023-05-14T22:42:15.947Z,9.25
2023-05-14T22:44:43.051Z,8.70
2023-05-14T22:47:10.443Z,8.48
2023-05-14T22:49:37.632Z,8.65
2023-05-14T22:52:05.055Z,7.93
2023-05-14T22:54:32.220Z,7.75
2023-05-14T22:56:59.408Z,7.90
2023-05-14T22:59:26.525Z,7.78
2023-05-14T23:01:53.701Z,8.80
2023-05-14T23:04:21.447Z,7.82
2023-05-14T23:06:48.649Z,8.57
2023-05-14T23:09:15.816Z,8.02
2023-05-14T23:11:43.147Z,8.30
2023-05-14T23:14:10.337Z,8.00
2023-05-14T23:16:37.834Z,7.82
2023-05-14T23:19:05.369Z,7.80
2023-05-14T23:21:33.083Z,7.22
2023-05-14T23:24:00.273Z,9.52
2023-05-14T23:26:27.488Z,8.95
2023-05-14T23:28:54.644Z,8.35
2023-05-14T23:31:21.901Z,9.75
2023-05-14T23:33:48.989Z,8.95
2023-05-14T23:36:16.149Z,8.63
2023-05-14T23:38:43.550Z,8.77
2023-05-14T23:41:10.851Z,8.52
2023-05-14T23:43:37.978Z,9.57
2023-05-14T23:46:08.903Z,10.27
2023-05-14T23:48:36.134Z,10.32
2023-05-14T23:51:03.314Z,10.57
2023-05-14T23:53:30.451Z,9.60
2023-05-14T23:55:57.579Z,10.65
2023-05-14T23:58:24.825Z,10.30
